Time;durP1;ratioP1;P1;durP2;ratioP2;P2;SDS_P1;SDS_P2;PMS_P1;PMS_P2;Temp;Humidity;BMP_temperature;BMP_pressure;BME280_temperature;BME280_humidity;BME280_pressure;Samples;Min_cycle;Max_cycle;Signal;HPM_P1;HPM_P2
2022/03/23 00:01:16;;;;;;;;;;;;;;;0.66;100.00;99728.78;10395778;28;19933;-77
2022/03/23 00:06:17;;;;;;;;;;;;;;;0.59;100.00;99727.25;10431436;28;19925;-76
2022/03/23 00:11:17;;;;;;;;;;;;;;;0.54;100.00;99727.88;10406085;28;19935;-75
2022/03/23 00:16:19;;;;;;;;;;;;;;;0.42;100.00;99724.38;10373178;28;19979;-77
2022/03/23 00:21:21;;;;;;;;;;;;;;;0.33;100.00;99726.50;10384936;28;19930;-76
2022/03/23 00:26:22;;;;;;;;;;;;;;;0.23;100.00;99731.50;10386274;28;20011;-77
2022/03/23 00:31:23;;;;;;;;;;;;;;;0.13;100.00;99729.38;10384985;28;19933;-76
2022/03/23 00:36:24;;;;;;;;;;;;;;;0.07;100.00;99727.59;10430794;28;20473;-78
2022/03/23 00:41:25;;;;;;;;;;;;;;;0.08;100.00;99725.75;10430416;28;19929;-78
2022/03/23 00:46:25;;;;;;;;;;;;;;;0.06;100.00;99733.09;10440831;28;19932;-78
2022/03/23 00:51:30;;;;;;;;;;;;;;;-0.07;100.00;99734.03;10414340;28;19951;-78
2022/03/23 00:56:31;;;;;;;;;;;;;;;-0.12;100.00;99733.88;10401309;28;19925;-78
2022/03/23 01:01:33;;;;;;;;;;;;;;;-0.12;100.00;99739.97;10378931;28;19929;-78
2022/03/23 01:06:33;;;;;;;;;;;;;;;-0.16;100.00;99727.44;10379519;28;19925;-77
2022/03/23 01:11:33;;;;;;;;;;;;;;;-0.31;100.00;99727.75;10394151;28;19940;-78
2022/03/23 01:16:34;;;;;;;;;;;;;;;-0.40;100.00;99724.56;10401166;28;19925;-78
2022/03/23 01:21:36;;;;;;;;;;;;;;;-0.40;100.00;99735.13;10403934;28;19964;-78
2022/03/23 01:26:36;;;;;;;;;;;;;;;-0.45;100.00;99734.19;10400092;28;19933;-78
2022/03/23 01:31:38;;;;;;;;;;;;;;;-0.57;100.00;99729.56;10399033;28;19937;-78
2022/03/23 01:36:39;;;;;;;;;;;;;;;-0.54;100.00;99728.38;10377528;28;19929;-77
2022/03/23 01:41:40;;;;;;;;;;;;;;;-0.71;100.00;99729.91;10397546;28;19910;-80
2022/03/23 01:47:01;;;;;;;;;;;;;;;-0.80;100.00;99732.00;10441163;28;19943;-78
2022/03/23 01:52:06;;;;;;;;;;;;;;;-0.93;100.00;99726.78;10437735;28;19960;-80
2022/03/23 01:57:07;;;;;;;;;;;;;;;-0.87;100.00;99728.59;10451857;28;19909;-78
2022/03/23 02:02:11;;;;;;;;;;;;;;;-0.92;100.00;99733.66;10429972;28;19933;-78
2022/03/23 02:07:25;;;;;;;;;;;;;;;-0.94;100.00;99723.34;10396469;28;20010;-79
2022/03/23 02:12:30;;;;;;;;;;;;;;;-0.96;100.00;99728.03;10400503;28;19933;-78
2022/03/23 02:17:30;;;;;;;;;;;;;;;-1.07;100.00;99725.25;10399071;28;19936;-79
2022/03/23 02:22:32;;;;;;;;;;;;;;;-1.09;100.00;99720.22;10408880;28;19921;-78
2022/03/23 02:27:34;;;;;;;;;;;;;;;-1.19;100.00;99733.00;10388259;28;19925;-78
2022/03/23 02:32:35;;;;;;;;;;;;;;;-1.25;100.00;99723.34;10433480;28;19926;-78
2022/03/23 02:37:35;;;;;;;;;;;;;;;-1.19;100.00;99733.84;10426386;28;19932;-78
2022/03/23 02:42:37;;;;;;;;;;;;;;;-1.32;100.00;99727.81;10421323;28;20028;-78
2022/03/23 02:47:38;;;;;;;;;;;;;;;-1.31;100.00;99732.88;10400538;28;19968;-79
2022/03/23 03:01:52;;;;;;;;;;;;;;;-1.46;100.00;99724.44;10406019;28;20013;-78
2022/03/23 03:03:20;;;;;;;;;;;;;;;-1.24;100.00;99730.22;10378005;28;19929;-78
2022/03/23 03:13:43;;;;;;;;;;;;;;;-1.43;100.00;99731.91;10365255;28;19928;-78
2022/03/23 03:18:43;;;;;;;;;;;;;;;-1.28;100.00;99729.00;10379124;28;19925;-79
2022/03/23 03:23:44;;;;;;;;;;;;;;;-1.31;100.00;99730.22;10401382;28;20376;-78
2022/03/23 03:28:45;;;;;;;;;;;;;;;-1.37;100.00;99731.09;10382682;28;19987;-78
2022/03/23 03:33:46;;;;;;;;;;;;;;;-1.41;100.00;99724.63;10393872;28;20427;-78
2022/03/23 03:38:47;;;;;;;;;;;;;;;-1.52;100.00;99725.28;10364081;28;19928;-77
2022/03/23 03:43:49;;;;;;;;;;;;;;;-1.61;100.00;99718.63;10382641;28;19952;-78
2022/03/23 03:48:50;;;;;;;;;;;;;;;-1.57;100.00;99723.25;10393034;28;19964;-78
2022/03/23 03:53:56;;;;;;;;;;;;;;;-1.62;100.00;99730.16;10394743;28;19925;-77
2022/03/23 03:58:57;;;;;;;;;;;;;;;-1.73;100.00;99732.44;10441638;28;19936;-80
2022/03/23 04:03:57;;;;;;;;;;;;;;;-1.81;100.00;99742.38;10310195;28;3900354;-78
2022/03/23 04:08:58;;;;;;;;;;;;;;;-1.86;100.00;99737.72;10438319;28;19953;-78
2022/03/23 04:13:58;;;;;;;;;;;;;;;-1.82;100.00;99743.41;10371583;28;20031;-78
2022/03/23 04:18:58;;;;;;;;;;;;;;;-1.75;100.00;99750.22;10380542;28;20465;-78
2022/03/23 04:24:00;;;;;;;;;;;;;;;-1.85;100.00;99756.94;10369437;28;19928;-78
2022/03/23 04:29:01;;;;;;;;;;;;;;;-1.87;100.00;99761.59;10418636;28;19947;-79
2022/03/23 04:34:02;;;;;;;;;;;;;;;-1.71;100.00;99763.81;10392270;28;19933;-82
2022/03/23 04:39:02;;;;;;;;;;;;;;;-1.76;100.00;99758.34;10403133;28;20335;-78
2022/03/23 04:44:03;;;;;;;;;;;;;;;-1.78;100.00;99771.72;10407254;28;19925;-77
2022/03/23 04:49:03;;;;;;;;;;;;;;;-1.71;100.00;99761.19;10372790;28;19929;-77
2022/03/23 04:54:04;;;;;;;;;;;;;;;-1.72;100.00;99770.09;10383166;28;19999;-78
2022/03/23 04:59:05;;;;;;;;;;;;;;;-1.70;100.00;99780.41;10381055;28;20044;-79
2022/03/23 05:04:06;;;;;;;;;;;;;;;-1.85;100.00;99780.63;10429841;28;19936;-78
2022/03/23 05:09:07;;;;;;;;;;;;;;;-1.91;100.00;99778.84;10387863;28;19936;-76
2022/03/23 05:14:07;;;;;;;;;;;;;;;-1.96;100.00;99784.69;10408400;28;20020;-76
2022/03/23 05:19:08;;;;;;;;;;;;;;;-2.06;100.00;99784.31;10387724;28;19976;-81
2022/03/23 05:24:08;;;;;;;;;;;;;;;-1.97;100.00;99782.28;10368594;28;19929;-77
2022/03/23 05:29:09;;;;;;;;;;;;;;;-1.91;100.00;99778.84;10396606;28;19925;-78
2022/03/23 05:34:12;;;;;;;;;;;;;;;-1.70;100.00;99785.66;10396456;28;19929;-77
2022/03/23 05:39:13;;;;;;;;;;;;;;;-1.73;100.00;99792.97;10372471;28;20360;-78
2022/03/23 05:44:13;;;;;;;;;;;;;;;-1.53;100.00;99792.91;10387474;28;19935;-80
2022/03/23 05:49:14;;;;;;;;;;;;;;;-1.46;100.00;99795.53;10369098;28;19968;-78
2022/03/23 05:54:16;;;;;;;;;;;;;;;-1.36;100.00;99784.56;10402579;28;19937;-78
2022/03/23 05:59:17;;;;;;;;;;;;;;;-1.14;100.00;99799.06;10415498;28;19991;-78
2022/03/23 06:04:17;;;;;;;;;;;;;;;-0.95;100.00;99800.78;10405853;28;19933;-76
2022/03/23 06:09:18;;;;;;;;;;;;;;;-0.71;100.00;99801.09;10414819;28;20002;-77
2022/03/23 06:14:18;;;;;;;;;;;;;;;-0.45;100.00;99800.13;10394117;28;19925;-77
2022/03/23 06:19:20;;;;;;;;;;;;;;;-0.08;100.00;99798.41;10414599;28;19932;-78
2022/03/23 06:24:20;;;;;;;;;;;;;;;0.11;100.00;99804.53;10423492;28;19944;-76
2022/03/23 06:29:21;;;;;;;;;;;;;;;0.34;100.00;99807.34;10408935;28;20043;-78
2022/03/23 06:34:22;;;;;;;;;;;;;;;0.49;100.00;99807.00;10408190;28;21423;-78
2022/03/23 06:39:22;;;;;;;;;;;;;;;1.13;100.00;99800.34;10393924;28;19944;-76
2022/03/23 06:44:23;;;;;;;;;;;;;;;1.62;100.00;99812.47;10425074;28;19947;-77
2022/03/23 06:49:24;;;;;;;;;;;;;;;1.06;100.00;99810.19;10400197;28;19957;-76
2022/03/23 06:54:24;;;;;;;;;;;;;;;1.32;100.00;99814.34;10374651;28;19979;-77
2022/03/23 06:59:25;;;;;;;;;;;;;;;1.65;100.00;99821.81;10416222;28;20327;-80
2022/03/23 07:04:26;;;;;;;;;;;;;;;2.25;100.00;99817.16;10401435;28;19930;-77
2022/03/23 07:09:32;;;;;;;;;;;;;;;2.79;100.00;99815.13;10383104;28;19936;-76
2022/03/23 07:14:33;;;;;;;;;;;;;;;2.84;100.00;99820.56;10360419;28;19929;-76
2022/03/23 07:19:34;;;;;;;;;;;;;;;2.80;100.00;99821.25;10391390;28;20448;-75
2022/03/23 07:24:34;;;;;;;;;;;;;;;3.17;100.00;99820.91;10389574;28;19929;-76
2022/03/23 07:29:35;;;;;;;;;;;;;;;3.41;100.00;99817.13;10419411;28;19921;-75
2022/03/23 07:34:38;;;;;;;;;;;;;;;3.19;100.00;99810.84;10444861;28;19936;-76
2022/03/23 07:39:39;;;;;;;;;;;;;;;3.53;100.00;99819.72;10441536;28;19964;-76
2022/03/23 07:44:39;;;;;;;;;;;;;;;3.99;100.00;99822.09;10404454;28;19940;-76
2022/03/23 07:49:40;;;;;;;;;;;;;;;4.12;100.00;99830.81;10384586;28;19929;-76
2022/03/23 07:54:40;;;;;;;;;;;;;;;4.33;100.00;99827.41;10405095;28;20044;-77
2022/03/23 07:59:41;;;;;;;;;;;;;;;4.39;99.04;99823.78;10397878;28;19964;-78
2022/03/23 08:04:41;;;;;;;;;;;;;;;4.83;94.59;99819.28;10396238;28;19939;-77
2022/03/23 08:09:42;;;;;;;;;;;;;;;4.92;92.12;99824.19;10390352;28;19986;-78
2022/03/23 08:14:46;;;;;;;;;;;;;;;5.16;93.39;99824.75;10400066;28;19995;-77
2022/03/23 08:20:32;;;;;;;;;;;;;;;5.32;89.72;99826.53;10416210;28;19940;-77
2022/03/23 08:25:10;;;;;;;;;;;;;;;5.64;90.22;99819.38;10434756;28;20713;-77
2022/03/23 08:30:12;;;;;;;;;;;;;;;5.53;84.01;99822.19;10393289;28;19929;-78
2022/03/23 08:35:14;;;;;;;;;;;;;;;6.46;87.80;99812.03;10359449;28;19929;-77
2022/03/23 08:40:14;;;;;;;;;;;;;;;6.47;77.56;99822.44;10391181;28;19945;-79
2022/03/23 08:45:16;;;;;;;;;;;;;;;6.99;77.98;99818.97;10394326;28;20043;-77
2022/03/23 08:50:16;;;;;;;;;;;;;;;6.94;80.05;99818.13;10393141;28;19929;-77
2022/03/23 08:55:19;;;;;;;;;;;;;;;7.29;70.56;99812.91;10389142;28;19933;-76
2022/03/23 09:00:21;;;;;;;;;;;;;;;7.52;68.30;99811.63;10378492;28;19925;-76
2022/03/23 09:05:22;;;;;;;;;;;;;;;8.02;70.94;99820.75;10371185;28;19937;-76
2022/03/23 09:10:24;;;;;;;;;;;;;;;8.37;68.92;99819.16;10391775;28;19951;-77
2022/03/23 09:15:26;;;;;;;;;;;;;;;8.70;65.99;99810.53;10374640;28;19940;-78
2022/03/23 09:20:28;;;;;;;;;;;;;;;9.06;66.29;99813.06;10376015;28;19936;-76
2022/03/23 09:25:29;;;;;;;;;;;;;;;9.27;61.13;99814.56;10389371;28;19936;-76
2022/03/23 09:30:31;;;;;;;;;;;;;;;9.53;59.87;99801.00;10395912;28;20720;-78
2022/03/23 09:35:32;;;;;;;;;;;;;;;10.00;60.66;99796.91;10392089;28;19929;-78
2022/03/23 09:40:32;;;;;;;;;;;;;;;10.18;52.70;99790.84;10375283;28;19933;-78
2022/03/23 09:50:41;;;;;;;;;;;;;;;10.52;49.14;99788.09;10377403;28;20351;-79
2022/03/23 09:55:43;;;;;;;;;;;;;;;10.66;46.85;99783.63;10358210;28;20228;-78
2022/03/23 10:00:44;;;;;;;;;;;;;;;11.17;47.93;99784.91;10404226;28;19920;-78
2022/03/23 10:06:03;;;;;;;;;;;;;;;11.53;47.94;99774.44;10434231;28;19955;-78
2022/03/23 10:11:18;;;;;;;;;;;;;;;11.69;46.07;99767.72;10400835;28;19956;-79
2022/03/23 10:16:37;;;;;;;;;;;;;;;11.93;38.49;99767.63;10448043;28;19929;-77
2022/03/23 10:21:42;;;;;;;;;;;;;;;11.98;38.28;99767.56;10423234;28;19933;-77
2022/03/23 10:26:42;;;;;;;;;;;;;;;12.59;38.08;99762.94;10410981;28;20704;-77
2022/03/23 10:31:46;;;;;;;;;;;;;;;12.79;37.22;99755.22;10404420;28;19929;-77
2022/03/23 10:36:47;;;;;;;;;;;;;;;13.48;36.28;99752.41;10384552;28;19933;-77
2022/03/23 10:41:57;;;;;;;;;;;;;;;13.93;36.54;99747.78;10410042;28;19975;-78
2022/03/23 10:46:58;;;;;;;;;;;;;;;14.32;32.47;99742.75;10386831;28;19952;-79
2022/03/23 10:52:16;;;;;;;;;;;;;;;14.82;32.98;99745.19;10387497;28;19956;-78
2022/03/23 10:57:17;;;;;;;;;;;;;;;15.00;33.60;99730.56;10379920;28;19925;-78
2022/03/23 11:02:18;;;;;;;;;;;;;;;15.27;29.35;99729.44;10386186;28;19933;-79
2022/03/23 11:07:22;;;;;;;;;;;;;;;15.60;32.16;99719.75;10396842;28;19933;-77
2022/03/23 11:17:42;;;;;;;;;;;;;;;16.29;29.54;99707.94;10386894;28;19964;-79
2022/03/23 11:22:43;;;;;;;;;;;;;;;16.89;28.06;99720.38;10402635;28;19925;-79
2022/03/23 11:27:45;;;;;;;;;;;;;;;16.27;27.49;99703.97;10360686;28;19936;-79
2022/03/23 11:32:46;;;;;;;;;;;;;;;16.56;30.07;99695.88;10371228;28;19992;-77
2022/03/23 11:37:47;;;;;;;;;;;;;;;16.99;27.39;99692.09;10369858;28;19932;-75
2022/03/23 11:42:48;;;;;;;;;;;;;;;17.25;26.15;99694.59;10394846;28;19936;-75
2022/03/23 11:47:54;;;;;;;;;;;;;;;17.46;27.77;99691.84;10394855;28;19925;-77
2022/03/23 11:53:02;;;;;;;;;;;;;;;18.19;26.17;99679.25;10395896;28;20327;-76
2022/03/23 12:03:43;;;;;;;;;;;;;;;17.91;28.57;99670.16;10406377;28;19937;-76
2022/03/23 12:08:49;;;;;;;;;;;;;;;18.35;25.32;99660.34;10374626;28;19933;-77
2022/03/23 12:13:56;;;;;;;;;;;;;;;18.54;22.46;99653.53;10385889;28;19940;-77
2022/03/23 12:19:00;;;;;;;;;;;;;;;18.58;25.25;99643.56;10406346;28;19940;-76
2022/03/23 12:24:04;;;;;;;;;;;;;;;19.00;24.63;99636.66;10384326;28;20331;-78
2022/03/23 12:29:15;;;;;;;;;;;;;;;18.16;23.42;99622.06;10375983;28;19948;-77
2022/03/23 12:34:18;;;;;;;;;;;;;;;19.29;23.34;99630.09;10397637;28;20025;-78
2022/03/23 12:39:51;;;;;;;;;;;;;;;19.31;24.86;99618.88;10384358;28;19956;-77
2022/03/23 12:45:05;;;;;;;;;;;;;;;19.43;23.27;99605.16;10383355;28;20376;-78
2022/03/23 13:00:48;;;;;;;;;;;;;;;19.72;28.55;99598.53;10393430;28;19933;-76
2022/03/23 13:05:58;;;;;;;;;;;;;;;20.31;24.32;99596.84;10375314;28;19929;-78
2022/03/23 13:11:03;;;;;;;;;;;;;;;20.92;23.70;99588.00;10353300;28;19929;-78
2022/03/23 13:16:07;;;;;;;;;;;;;;;21.76;20.53;99582.56;10364225;28;19929;-76
2022/03/23 13:21:11;;;;;;;;;;;;;;;21.60;21.58;99587.34;10407370;28;19929;-77
2022/03/23 13:26:13;;;;;;;;;;;;;;;21.62;22.33;99574.09;10381021;28;20347;-77
2022/03/23 13:31:14;;;;;;;;;;;;;;;21.33;19.46;99572.03;10359756;28;20342;-77
2022/03/23 13:36:16;;;;;;;;;;;;;;;22.60;22.45;99562.31;10403084;28;20784;-77
2022/03/23 13:46:38;;;;;;;;;;;;;;;22.89;22.22;99560.72;10396193;28;19933;-77
2022/03/23 13:51:42;;;;;;;;;;;;;;;22.03;20.57;99547.78;10397871;28;19929;-79
2022/03/23 13:56:47;;;;;;;;;;;;;;;21.90;20.61;99549.19;10386865;28;19929;-79
2022/03/23 14:01:48;;;;;;;;;;;;;;;21.04;23.16;99557.84;10386152;28;19929;-78
2022/03/23 14:06:51;;;;;;;;;;;;;;;21.48;21.08;99543.81;10385321;28;19933;-77
2022/03/23 14:16:57;;;;;;;;;;;;;;;20.95;19.08;99538.16;10372810;28;19991;-78
2022/03/23 14:21:58;;;;;;;;;;;;;;;20.93;24.78;99537.72;10404698;28;19940;-79
2022/03/23 14:27:21;;;;;;;;;;;;;;;21.35;20.91;99517.84;10382331;28;20304;-78
2022/03/23 14:32:30;;;;;;;;;;;;;;;21.37;22.11;99513.59;10374403;28;20438;-77
2022/03/23 14:37:34;;;;;;;;;;;;;;;20.78;23.43;99514.06;10385638;28;19929;-76
2022/03/23 14:42:34;;;;;;;;;;;;;;;20.50;21.61;99503.38;10403796;28;19940;-79
2022/03/23 14:47:48;;;;;;;;;;;;;;;20.14;24.95;99497.94;10381489;28;19936;-77
2022/03/23 14:52:49;;;;;;;;;;;;;;;19.97;23.23;99492.09;10389292;28;19985;-76
2022/03/23 14:57:51;;;;;;;;;;;;;;;19.55;23.46;99490.72;10416641;28;19920;-79
2022/03/23 15:02:52;;;;;;;;;;;;;;;19.24;25.94;99488.78;10414054;28;19913;-76
2022/03/23 15:13:15;;;;;;;;;;;;;;;18.50;24.41;99481.34;10429138;28;19929;-77
2022/03/23 15:18:16;;;;;;;;;;;;;;;18.54;25.06;99479.50;10411221;28;19964;-78
2022/03/23 15:23:18;;;;;;;;;;;;;;;18.33;26.03;99474.28;10421530;28;19938;-77
2022/03/23 15:28:18;;;;;;;;;;;;;;;18.13;25.01;99478.75;10400670;28;20066;-78
2022/03/23 15:33:20;;;;;;;;;;;;;;;17.84;24.96;99468.97;10375247;28;19995;-77
2022/03/23 15:38:20;;;;;;;;;;;;;;;17.62;27.87;99475.59;10379892;28;19933;-76
2022/03/23 15:43:21;;;;;;;;;;;;;;;17.58;25.00;99480.16;10410742;28;19940;-76
2022/03/23 15:48:24;;;;;;;;;;;;;;;17.43;25.97;99462.59;10384004;28;20395;-77
2022/03/23 15:53:32;;;;;;;;;;;;;;;17.18;26.09;99469.13;10415702;28;19933;-77
2022/03/23 15:58:36;;;;;;;;;;;;;;;17.02;25.08;99464.38;10410518;28;19961;-76
2022/03/23 16:03:38;;;;;;;;;;;;;;;16.99;24.96;99461.53;10403281;28;20353;-75
2022/03/23 16:08:38;;;;;;;;;;;;;;;16.77;25.12;99462.75;10401176;28;19929;-76
2022/03/23 16:13:39;;;;;;;;;;;;;;;16.62;26.09;99466.84;10398756;28;19929;-77
2022/03/23 16:18:40;;;;;;;;;;;;;;;16.56;25.67;99467.41;10381454;28;19925;-77
2022/03/23 16:23:41;;;;;;;;;;;;;;;16.42;25.55;99464.94;10381660;28;19937;-77
2022/03/23 16:28:41;;;;;;;;;;;;;;;16.19;25.56;99464.53;10401239;28;19933;-75
2022/03/23 16:33:42;;;;;;;;;;;;;;;16.10;27.05;99466.50;10381677;28;20296;-77
2022/03/23 16:38:43;;;;;;;;;;;;;;;16.02;25.98;99462.72;10418506;28;19921;-75
2022/03/23 16:43:44;;;;;;;;;;;;;;;15.91;27.18;99465.03;10403242;28;19936;-77
2022/03/23 16:48:45;;;;;;;;;;;;;;;15.61;27.58;99466.16;10367289;28;19933;-75
2022/03/23 16:53:45;;;;;;;;;;;;;;;15.22;28.15;99472.69;10367607;28;19933;-76
2022/03/23 16:58:48;;;;;;;;;;;;;;;14.82;29.25;99466.78;10421303;28;19936;-75
2022/03/23 17:14:28;;;;;;;;;;;;;;;13.85;32.23;99475.16;10401792;28;19929;-75
2022/03/23 17:19:33;;;;;;;;;;;;;;;13.46;34.85;99476.03;10397012;28;19936;-75
2022/03/23 17:24:37;;;;;;;;;;;;;;;13.27;32.51;99471.69;10388334;28;19929;-75
2022/03/23 17:29:39;;;;;;;;;;;;;;;13.03;34.51;99473.91;10405867;28;20000;-78
2022/03/23 17:34:39;;;;;;;;;;;;;;;12.61;35.95;99477.91;10411025;28;19929;-76
2022/03/23 17:39:40;;;;;;;;;;;;;;;12.26;36.59;99479.59;10410597;28;20037;-75
2022/03/23 17:44:41;;;;;;;;;;;;;;;11.99;36.46;99483.13;10386800;28;19965;-76
2022/03/23 17:49:44;;;;;;;;;;;;;;;11.69;37.16;99493.38;10406496;28;19939;-80
2022/03/23 17:54:45;;;;;;;;;;;;;;;11.44;39.03;99483.16;10407385;28;19930;-77
2022/03/23 17:59:46;;;;;;;;;;;;;;;11.00;43.62;99493.34;10422209;28;19939;-76
2022/03/23 18:04:49;;;;;;;;;;;;;;;10.68;46.39;99485.31;10403387;28;19925;-78
2022/03/23 18:09:50;;;;;;;;;;;;;;;10.43;47.18;99484.63;10408778;28;19929;-75
2022/03/23 18:14:51;;;;;;;;;;;;;;;10.22;46.33;99488.69;10417389;28;19948;-74
2022/03/23 18:19:53;;;;;;;;;;;;;;;10.05;48.90;99483.00;10426296;28;19918;-74
2022/03/23 18:24:54;;;;;;;;;;;;;;;9.84;52.90;99495.88;10431821;28;19929;-77
2022/03/23 18:29:54;;;;;;;;;;;;;;;9.56;63.13;99494.91;10421004;28;19958;-76
2022/03/23 18:34:54;;;;;;;;;;;;;;;9.75;54.51;99498.41;10423632;28;19929;-76
2022/03/23 18:39:56;;;;;;;;;;;;;;;9.51;64.03;99495.75;10432184;28;19925;-77
2022/03/23 18:44:57;;;;;;;;;;;;;;;9.16;70.81;99496.16;10425440;28;19979;-78
2022/03/23 18:50:00;;;;;;;;;;;;;;;8.81;72.65;99503.41;10393411;28;19928;-76
2022/03/23 18:55:02;;;;;;;;;;;;;;;8.54;79.88;99504.69;10385262;28;19925;-77
2022/03/23 19:00:03;;;;;;;;;;;;;;;8.39;73.53;99504.00;10379375;28;20441;-77
2022/03/23 19:05:06;;;;;;;;;;;;;;;8.24;78.26;99503.00;10409959;28;19929;-76
2022/03/23 19:10:07;;;;;;;;;;;;;;;8.04;76.26;99511.13;10380452;28;19929;-76
2022/03/23 19:15:07;;;;;;;;;;;;;;;7.88;81.49;99515.78;10388641;28;20415;-77
2022/03/23 19:20:09;;;;;;;;;;;;;;;7.72;88.68;99519.56;10415748;28;20422;-78
2022/03/23 19:25:10;;;;;;;;;;;;;;;7.35;91.33;99525.31;10426991;28;19929;-79
2022/03/23 19:30:11;;;;;;;;;;;;;;;7.24;85.00;99526.41;10395219;28;19936;-76
2022/03/23 19:35:13;;;;;;;;;;;;;;;7.25;85.14;99520.78;10388912;28;19933;-76
2022/03/23 19:40:14;;;;;;;;;;;;;;;7.07;91.89;99532.81;10376960;28;19955;-76
2022/03/23 19:45:14;;;;;;;;;;;;;;;6.86;94.82;99541.91;10370642;28;19993;-77
2022/03/23 19:50:15;;;;;;;;;;;;;;;6.71;96.05;99539.25;10384896;28;19929;-75
2022/03/23 19:55:15;;;;;;;;;;;;;;;6.48;99.53;99537.88;10389857;28;19931;-77
2022/03/23 20:00:17;;;;;;;;;;;;;;;6.34;95.14;99537.59;10371488;28;19933;-75
2022/03/23 20:05:20;;;;;;;;;;;;;;;6.24;99.56;99542.91;10382625;28;19929;-75
2022/03/23 20:10:20;;;;;;;;;;;;;;;6.08;100.00;99541.25;10404062;28;19936;-76
2022/03/23 20:15:21;;;;;;;;;;;;;;;5.99;98.54;99541.75;10400790;28;19933;-74
2022/03/23 20:20:21;;;;;;;;;;;;;;;5.92;98.98;99540.41;10424797;28;19991;-75
2022/03/23 20:25:22;;;;;;;;;;;;;;;5.78;100.00;99540.06;10415375;28;19955;-75
2022/03/23 20:30:23;;;;;;;;;;;;;;;5.60;100.00;99541.31;10426479;28;19964;-75
2022/03/23 20:35:26;;;;;;;;;;;;;;;5.53;100.00;99545.25;10350078;28;20417;-76
2022/03/23 20:40:28;;;;;;;;;;;;;;;5.46;100.00;99547.34;10375440;28;19929;-77
2022/03/23 20:50:47;;;;;;;;;;;;;;;5.22;100.00;99545.09;10390514;28;19933;-78
2022/03/23 20:55:51;;;;;;;;;;;;;;;5.04;100.00;99551.63;10396368;28;19929;-79
2022/03/23 21:00:54;;;;;;;;;;;;;;;5.01;100.00;99553.97;10397580;28;19929;-77
2022/03/23 21:05:55;;;;;;;;;;;;;;;4.93;100.00;99549.09;10396016;28;19933;-77
2022/03/23 21:10:56;;;;;;;;;;;;;;;4.82;100.00;99546.38;10353383;28;19929;-76
2022/03/23 21:15:56;;;;;;;;;;;;;;;4.64;100.00;99546.75;10370410;28;19929;-76
2022/03/23 21:20:58;;;;;;;;;;;;;;;4.50;100.00;99561.53;10383293;28;20364;-76
2022/03/23 21:25:59;;;;;;;;;;;;;;;4.40;100.00;99553.47;10368830;28;19930;-76
2022/03/23 21:30:59;;;;;;;;;;;;;;;4.32;100.00;99546.72;10388052;28;19929;-76
2022/03/23 21:36:00;;;;;;;;;;;;;;;4.17;100.00;99543.91;10392392;28;20262;-77
2022/03/23 21:41:00;;;;;;;;;;;;;;;4.29;100.00;99550.66;10387359;28;20039;-76
2022/03/23 21:46:01;;;;;;;;;;;;;;;4.81;100.00;99559.94;10371945;28;20318;-76
2022/03/23 21:51:01;;;;;;;;;;;;;;;4.61;100.00;99559.75;10361806;28;20066;-77
2022/03/23 21:56:01;;;;;;;;;;;;;;;4.42;100.00;99552.13;10393327;28;20376;-77
2022/03/23 22:01:02;;;;;;;;;;;;;;;4.41;100.00;99547.09;10398671;28;19930;-78
2022/03/23 22:06:02;;;;;;;;;;;;;;;4.39;100.00;99546.50;10398072;28;19936;-76
2022/03/23 22:11:03;;;;;;;;;;;;;;;4.26;100.00;99556.50;10383041;28;20450;-75
2022/03/23 22:16:05;;;;;;;;;;;;;;;4.13;100.00;99548.94;10378892;28;20377;-76
2022/03/23 22:21:06;;;;;;;;;;;;;;;3.97;100.00;99547.94;10405761;28;19933;-74
2022/03/23 22:26:06;;;;;;;;;;;;;;;3.90;100.00;99546.53;10418385;28;20008;-77
2022/03/23 22:31:09;;;;;;;;;;;;;;;3.61;100.00;99557.31;10432897;28;19913;-77
2022/03/23 22:36:10;;;;;;;;;;;;;;;3.43;100.00;99557.59;10432004;28;19925;-75
2022/03/23 22:41:11;;;;;;;;;;;;;;;3.33;100.00;99562.78;10436850;28;19929;-77
2022/03/23 22:46:14;;;;;;;;;;;;;;;3.18;100.00;99550.06;10424682;28;19997;-75
2022/03/23 22:51:16;;;;;;;;;;;;;;;3.08;100.00;99550.72;10432674;28;19945;-77
2022/03/23 22:56:16;;;;;;;;;;;;;;;3.07;100.00;99548.31;10438194;28;21927;-77
2022/03/23 23:01:21;;;;;;;;;;;;;;;2.94;100.00;99551.31;10428890;28;19936;-80
2022/03/23 23:06:21;;;;;;;;;;;;;;;2.93;100.00;99553.16;10430928;28;19940;-77
2022/03/23 23:11:23;;;;;;;;;;;;;;;2.77;100.00;99553.97;10437181;28;19993;-77
2022/03/23 23:16:23;;;;;;;;;;;;;;;2.72;100.00;99556.50;10437029;28;19952;-77
2022/03/23 23:21:24;;;;;;;;;;;;;;;2.51;100.00;99548.22;10420990;28;19925;-77
2022/03/23 23:26:27;;;;;;;;;;;;;;;2.47;100.00;99551.56;10423500;28;19944;-79
2022/03/23 23:31:27;;;;;;;;;;;;;;;2.39;100.00;99552.78;10430731;28;19928;-76
2022/03/23 23:36:32;;;;;;;;;;;;;;;2.24;100.00;99561.25;10408503;28;20000;-75
2022/03/23 23:41:32;;;;;;;;;;;;;;;2.07;100.00;99563.03;10424396;28;19925;-77
2022/03/23 23:46:33;;;;;;;;;;;;;;;1.96;100.00;99566.53;10412031;28;19928;-75
2022/03/23 23:51:33;;;;;;;;;;;;;;;1.89;100.00;99557.91;10376283;28;19941;-77
2022/03/23 23:56:34;;;;;;;;;;;;;;;1.83;100.00;99556.19;10393279;28;20379;-77
